Аэропорт: Вологда. Вологда

ICAO: ULWW

METAR:
2013/07/19 07:00
ULWW 190700Z 15005MPS 9999 BKN033CB OVC/// 14/11 Q1006 TEMPO 4000 -SHRA RMK QFE744 33290147
METAR:
2012/12/02 15:12
TAF TAF 
      AMD ULWW 021410 0215/0224 CNL